Time;durP1;ratioP1;P1;durP2;ratioP2;P2;SDS_P1;SDS_P2;PMS_P1;PMS_P2;Temp;Humidity;BMP_temperature;BMP_pressure;BME280_temperature;BME280_humidity;BME280_pressure;Samples;Min_cycle;Max_cycle;Signal;HPM_P1;HPM_P2
2022/03/04 00:00:11;;;;;;;17.25;12.55;;;;;;;2.45;39.06;99182.72;5047463;28;20103;-68
2022/03/04 00:02:44;;;;;;;19.63;12.57;;;;;;;2.37;39.39;99181.19;5048294;28;20072;-68
2022/03/04 00:05:16;;;;;;;16.58;11.15;;;;;;;2.29;39.02;99178.78;5047964;28;20091;-68
2022/03/04 00:07:48;;;;;;;14.45;10.25;;;;;;;2.16;39.42;99175.59;5054523;28;20068;-68
2022/03/04 00:10:21;;;;;;;17.67;12.07;;;;;;;1.85;40.22;99148.47;5054818;28;20042;-68
2022/03/04 00:12:54;;;;;;;17.52;11.93;;;;;;;1.96;39.89;99175.22;5050402;28;20037;-68
2022/03/04 00:15:26;;;;;;;17.83;11.90;;;;;;;1.78;40.19;99145.13;5052898;28;20182;-67
2022/03/04 00:18:00;;;;;;;18.90;11.63;;;;;;;2.00;39.93;99176.84;5053921;28;20091;-67
2022/03/04 00:20:29;;;;;;;18.23;12.35;;;;;;;2.00;40.22;99186.47;5050872;28;20087;-67
2022/03/04 00:22:59;;;;;;;19.65;12.05;;;;;;;2.00;40.40;99189.94;5050206;28;20037;-67
2022/03/04 00:25:29;;;;;;;17.80;12.05;;;;;;;2.04;40.03;99185.50;5049656;28;20049;-67
2022/03/04 00:27:59;;;;;;;18.55;11.85;;;;;;;2.06;40.40;99187.16;5048157;28;20243;-67
2022/03/04 00:30:30;;;;;;;15.77;10.93;;;;;;;1.94;40.29;99179.63;5046659;28;20045;-67
2022/03/04 00:33:01;;;;;;;21.00;13.68;;;;;;;2.12;40.39;99180.94;5046788;28;20037;-67
2022/03/04 00:35:30;;;;;;;17.10;11.57;;;;;;;2.18;39.63;99173.81;5046672;28;20052;-67
2022/03/04 00:38:00;;;;;;;21.67;12.88;;;;;;;2.14;40.37;99180.00;5046625;28;20343;-67
2022/03/04 00:40:31;;;;;;;19.67;13.13;;;;;;;2.08;40.98;99185.38;5046701;28;20103;-67
2022/03/04 00:43:01;;;;;;;20.23;12.90;;;;;;;2.09;40.32;99181.88;5046589;28;20116;-67
2022/03/04 00:45:31;;;;;;;18.52;11.25;;;;;;;2.07;40.64;99178.44;5046292;28;20037;-67
2022/03/04 00:48:03;;;;;;;17.00;11.02;;;;;;;2.11;40.11;99176.59;5046460;28;20041;-66
2022/03/04 00:50:31;;;;;;;20.20;12.40;;;;;;;2.08;39.94;99177.53;5046201;28;20297;-66
2022/03/04 00:53:02;;;;;;;20.30;12.63;;;;;;;2.06;39.77;99181.94;5046016;28;20062;-67
2022/03/04 00:55:36;;;;;;;19.50;12.48;;;;;;;2.07;40.48;99175.81;5046140;28;20064;-66
2022/03/04 00:58:08;;;;;;;17.02;12.00;;;;;;;2.03;40.71;99179.41;5046125;28;20045;-67
2022/03/04 01:00:37;;;;;;;19.15;12.57;;;;;;;2.01;39.97;99175.97;5062194;28;20045;-67
2022/03/04 01:03:09;;;;;;;18.38;11.98;;;;;;;2.08;39.70;99172.31;5046244;28;20045;-67
2022/03/04 01:05:38;;;;;;;20.60;13.75;;;;;;;1.99;40.33;99171.66;5045976;28;20297;-67
2022/03/04 01:08:08;;;;;;;21.63;13.60;;;;;;;2.01;40.08;99168.13;5046214;28;20041;-67
2022/03/04 01:10:39;;;;;;;18.65;12.65;;;;;;;1.95;40.26;99167.41;5046159;28;20048;-67
2022/03/04 01:13:09;;;;;;;21.13;14.05;;;;;;;2.00;40.02;99166.41;5045985;28;20104;-67
2022/03/04 01:15:39;;;;;;;19.80;12.95;;;;;;;2.02;40.09;99167.22;5045780;28;20037;-67
2022/03/04 01:18:11;;;;;;;22.75;13.90;;;;;;;2.01;40.20;99167.25;5045292;28;20084;-67
2022/03/04 01:20:40;;;;;;;19.50;11.57;;;;;;;2.01;40.09;99165.50;5046036;28;20041;-67
2022/03/04 01:23:10;;;;;;;17.60;12.52;;;;;;;1.72;40.72;99118.28;5045977;28;20300;-67
2022/03/04 01:25:40;;;;;;;18.95;11.75;;;;;;;1.93;39.96;99149.16;5061358;28;20097;-67
2022/03/04 01:28:10;;;;;;;23.75;13.18;;;;;;;1.89;40.16;99157.94;5045942;28;20104;-67
2022/03/04 01:30:40;;;;;;;22.17;14.05;;;;;;;1.87;40.12;99154.53;5045866;28;20041;-67
2022/03/04 01:33:12;;;;;;;20.75;14.65;;;;;;;1.85;40.64;99158.91;5045651;28;20049;-67
2022/03/04 01:35:41;;;;;;;17.98;12.35;;;;;;;1.82;40.79;99159.84;5045795;28;20045;-67
2022/03/04 01:38:12;;;;;;;18.65;11.68;;;;;;;1.42;40.29;99098.91;5045525;28;20041;-67
2022/03/04 01:40:42;;;;;;;20.42;12.73;;;;;;;0.20;40.23;98880.69;5045511;28;20048;-67
2022/03/04 01:43:12;;;;;;;19.65;13.27;;;;;;;1.81;40.85;99159.88;5045485;28;20049;-68
2022/03/04 01:45:43;;;;;;;18.95;12.85;;;;;;;1.79;40.33;99164.28;5045428;28;20100;-68
2022/03/04 01:48:14;;;;;;;18.08;12.98;;;;;;;1.80;40.26;99158.16;5045403;28;20288;-67
2022/03/04 01:50:42;;;;;;;21.13;14.25;;;;;;;1.51;41.08;99119.59;5045591;28;20127;-67
2022/03/04 01:53:13;;;;;;;20.15;13.43;;;;;;;1.70;41.39;99161.88;5045111;28;20144;-68
2022/03/04 01:55:43;;;;;;;18.92;13.82;;;;;;;1.70;40.58;99167.97;5045617;28;20037;-67
2022/03/04 01:58:13;;;;;;;22.27;14.80;;;;;;;1.75;40.65;99170.47;5045238;28;20041;-68
2022/03/04 02:00:43;;;;;;;20.35;11.98;;;;;;;1.80;40.74;99163.41;5045583;28;20169;-68
2022/03/04 02:03:15;;;;;;;23.00;13.70;;;;;;;1.78;40.55;99159.94;5045566;28;20061;-68
2022/03/04 02:05:45;;;;;;;21.42;13.68;;;;;;;1.81;40.24;99159.88;5045268;28;20064;-68
2022/03/04 02:08:14;;;;;;;24.33;16.17;;;;;;;1.78;41.39;99162.56;5045230;28;20079;-67
2022/03/04 02:10:44;;;;;;;21.00;15.13;;;;;;;1.81;41.06;99165.09;5045218;28;20069;-67
2022/03/04 02:13:16;;;;;;;25.23;14.48;;;;;;;1.79;40.66;99159.91;5045102;28;20209;-67
2022/03/04 02:15:46;;;;;;;19.60;14.15;;;;;;;1.78;40.82;99163.44;5045141;28;20041;-67
2022/03/04 02:18:18;;;;;;;20.35;14.15;;;;;;;1.75;41.03;99173.09;5045125;28;20069;-68
2022/03/04 02:20:48;;;;;;;22.27;14.50;;;;;;;1.75;40.95;99173.94;5045182;28;20064;-67
2022/03/04 02:23:18;;;;;;;21.17;14.65;;;;;;;1.71;41.95;99172.28;5045272;28;20060;-68
2022/03/04 02:25:48;;;;;;;22.10;13.15;;;;;;;1.53;41.18;99142.19;5045271;28;20212;-67
2022/03/04 02:28:17;;;;;;;22.63;14.32;;;;;;;1.70;41.22;99173.19;5045041;28;20104;-67
2022/03/04 02:30:46;;;;;;;25.60;16.05;;;;;;;1.70;41.54;99170.59;5045302;28;20052;-67
2022/03/04 02:33:17;;;;;;;21.42;16.13;;;;;;;1.67;41.51;99194.16;5045223;28;20048;-67
2022/03/04 02:35:48;;;;;;;26.95;15.23;;;;;;;1.63;40.97;99183.81;5045227;28;20196;-67
2022/03/04 02:38:19;;;;;;;25.17;16.20;;;;;;;1.58;41.52;99179.50;5045235;28;20116;-68
2022/03/04 02:40:47;;;;;;;20.50;14.00;;;;;;;1.57;41.96;99176.94;5044958;28;20043;-67
2022/03/04 02:43:18;;;;;;;25.95;17.13;;;;;;;1.57;41.73;99179.53;5045238;28;20108;-67
2022/03/04 02:45:49;;;;;;;19.50;14.35;;;;;;;1.54;42.05;99185.69;5048668;28;20289;-67
2022/03/04 02:48:18;;;;;;;24.05;15.25;;;;;;;1.54;41.74;99187.44;5048826;28;20347;-68
2022/03/04 02:50:48;;;;;;;20.58;15.18;;;;;;;1.49;41.84;99184.94;5048492;28;20045;-68
2022/03/04 02:53:20;;;;;;;22.98;15.90;;;;;;;1.48;41.70;99198.88;5048350;28;20057;-68
2022/03/04 02:55:49;;;;;;;23.38;15.45;;;;;;;1.47;41.66;99191.94;5048643;28;20045;-68
2022/03/04 02:58:19;;;;;;;30.05;16.98;;;;;;;1.45;41.98;99198.09;5048582;28;20340;-67
2022/03/04 03:00:50;;;;;;;22.38;14.65;;;;;;;1.25;41.59;99204.56;5048600;28;20045;-67
2022/03/04 03:03:20;;;;;;;25.75;17.33;;;;;;;1.44;41.89;99205.06;5048182;28;20042;-67
2022/03/04 03:05:50;;;;;;;22.40;15.75;;;;;;;1.48;41.72;99208.47;5048138;28;20033;-68
2022/03/04 03:08:21;;;;;;;19.27;13.88;;;;;;;1.42;42.50;99213.81;5048165;28;20113;-67
2022/03/04 03:10:50;;;;;;;26.90;15.80;;;;;;;1.45;42.32;99213.75;5048156;28;20252;-68
2022/03/04 03:13:21;;;;;;;23.40;15.98;;;;;;;1.44;41.74;99212.03;5048321;28;20096;-68
2022/03/04 03:15:51;;;;;;;25.55;16.27;;;;;;;1.06;43.13;99177.13;5048068;28;20045;-67
2022/03/04 03:18:21;;;;;;;25.92;17.63;;;;;;;1.41;42.09;99219.94;5048327;28;20041;-68
2022/03/04 03:20:51;;;;;;;26.63;18.52;;;;;;;1.47;42.20;99225.91;5047964;28;20307;-67
2022/03/04 03:23:23;;;;;;;26.40;19.60;;;;;;;1.49;42.56;99216.28;5048203;28;20046;-68
2022/03/04 03:25:52;;;;;;;25.05;18.90;;;;;;;1.49;42.58;99220.63;5048165;28;20038;-67
2022/03/04 03:28:22;;;;;;;28.02;19.17;;;;;;;1.43;43.06;99226.84;5047810;28;20041;-68
2022/03/04 03:30:52;;;;;;;28.70;19.90;;;;;;;1.44;42.76;99214.66;5047732;28;20052;-67
2022/03/04 03:33:23;;;;;;;29.83;19.75;;;;;;;1.45;42.75;99229.44;5047899;28;20224;-68
2022/03/04 03:35:54;;;;;;;29.30;20.42;;;;;;;1.43;43.31;99226.84;5047640;28;20045;-68
2022/03/04 03:38:25;;;;;;;32.08;18.55;;;;;;;1.44;44.16;99225.97;5047586;28;20045;-67
2022/03/04 03:40:53;;;;;;;30.65;20.85;;;;;;;1.45;43.34;99230.28;5047501;28;20041;-67
2022/03/04 03:43:23;;;;;;;33.45;21.63;;;;;;;1.43;44.92;99233.81;5047491;28;20343;-67
2022/03/04 03:45:54;;;;;;;36.83;22.15;;;;;;;1.38;44.76;99233.91;5047747;28;20111;-68
2022/03/04 03:48:24;;;;;;;38.38;23.65;;;;;;;1.38;44.89;99248.72;5047371;28;20045;-68
2022/03/04 03:50:54;;;;;;;35.08;22.75;;;;;;;1.35;46.00;99246.16;5047579;28;20045;-68
2022/03/04 03:53:26;;;;;;;35.17;22.48;;;;;;;1.29;46.51;99246.28;5047083;28;20339;-68
2022/03/04 03:55:55;;;;;;;36.05;22.98;;;;;;;1.32;45.30;99254.06;5046315;28;20045;-68
2022/03/04 03:58:25;;;;;;;35.83;23.13;;;;;;;1.25;44.89;99254.19;5047170;28;20041;-67
2022/03/04 04:00:56;;;;;;;37.28;22.95;;;;;;;1.02;45.16;99211.13;5047162;28;20042;-67
2022/03/04 04:03:25;;;;;;;39.92;25.38;;;;;;;1.25;45.43;99251.56;5047110;28;20075;-68
2022/03/04 04:05:56;;;;;;;38.50;26.20;;;;;;;1.25;45.43;99255.94;5047088;28;20290;-68
2022/03/04 04:08:27;;;;;;;44.10;27.85;;;;;;;1.19;47.02;99249.09;5047282;28;20042;-67
2022/03/04 04:10:56;;;;;;;45.85;27.35;;;;;;;1.18;45.77;99252.56;5046968;28;20076;-68
2022/03/04 04:13:26;;;;;;;46.95;27.17;;;;;;;0.61;46.49;99165.81;5046778;28;20087;-67
2022/03/04 04:15:57;;;;;;;38.13;23.75;;;;;;;1.22;46.07;99261.22;5047112;28;20379;-67
2022/03/04 04:18:27;;;;;;;43.55;27.25;;;;;;;1.28;45.48;99262.84;5047054;28;20049;-67
2022/03/04 04:20:57;;;;;;;42.53;26.30;;;;;;;1.23;45.63;99262.94;5046734;28;20041;-67
2022/03/04 04:23:29;;;;;;;41.35;26.10;;;;;;;1.14;46.36;99257.88;5046945;28;20041;-68
2022/03/04 04:25:58;;;;;;;44.40;27.02;;;;;;;1.14;47.04;99268.31;5046930;28;20041;-68
2022/03/04 04:28:28;;;;;;;39.67;26.23;;;;;;;1.13;46.16;99264.00;5046930;28;20285;-67
2022/03/04 04:30:58;;;;;;;37.60;24.83;;;;;;;0.83;47.13;99216.69;5046555;28;20048;-68
2022/03/04 04:33:28;;;;;;;36.63;25.02;;;;;;;1.14;46.06;99263.09;5046455;28;20045;-68
2022/03/04 04:35:59;;;;;;;49.05;24.42;;;;;;;1.14;46.00;99261.34;5046522;28;20041;-67
2022/03/04 04:38:30;;;;;;;38.40;24.33;;;;;;;1.11;47.17;99263.16;5046703;28;20041;-68
2022/03/04 04:40:59;;;;;;;38.75;23.77;;;;;;;1.17;46.44;99266.53;5046453;28;20037;-67
2022/03/04 04:43:29;;;;;;;37.70;24.17;;;;;;;1.16;46.23;99272.63;5046658;28;20045;-67
2022/03/04 04:46:00;;;;;;;39.50;23.85;;;;;;;0.38;46.81;99160.13;5046319;28;20040;-67
2022/03/04 04:48:30;;;;;;;40.78;25.02;;;;;;;1.15;47.07;99273.53;5046552;28;20048;-67
2022/03/04 04:51:00;;;;;;;43.15;24.63;;;;;;;1.11;46.38;99269.25;5046263;28;20037;-67
2022/03/04 04:53:33;;;;;;;42.92;26.38;;;;;;;1.08;48.04;99277.13;5045908;28;20057;-68
2022/03/04 04:56:01;;;;;;;42.42;25.75;;;;;;;1.08;47.01;99278.88;5046393;28;20086;-67
2022/03/04 04:58:31;;;;;;;38.72;25.42;;;;;;;1.08;47.11;99274.53;5046043;28;20297;-67
2022/03/04 05:01:01;;;;;;;40.63;25.35;;;;;;;1.04;47.88;99270.25;5046033;28;20105;-68
2022/03/04 05:03:32;;;;;;;39.70;24.23;;;;;;;1.08;47.88;99279.75;5046262;28;20053;-67
2022/03/04 05:06:02;;;;;;;42.58;25.65;;;;;;;1.11;47.30;99279.69;5046244;28;20037;-67
2022/03/04 05:08:33;;;;;;;38.17;24.52;;;;;;;1.07;48.20;99274.56;5045550;28;20104;-67
2022/03/04 05:11:02;;;;;;;41.58;24.48;;;;;;;1.14;47.74;99274.41;5046142;28;20085;-67
2022/03/04 05:13:32;;;;;;;49.88;26.95;;;;;;;1.10;49.07;99279.72;5046142;28;20091;-68
2022/03/04 05:16:03;;;;;;;42.50;26.02;;;;;;;1.12;47.66;99285.75;5046091;28;20070;-67
2022/03/04 05:18:33;;;;;;;40.45;25.73;;;;;;;1.09;48.11;99291.91;5045722;28;20048;-68
2022/03/04 05:21:03;;;;;;;38.72;21.23;;;;;;;1.11;48.14;99290.13;5045984;28;20037;-67
2022/03/04 05:26:24;;;;;;;40.78;26.33;;;;;;;1.07;47.77;99291.06;5045750;28;20091;-67
2022/03/04 05:28:57;;;;;;;37.30;24.67;;;;;;;1.07;49.20;99298.03;5045567;28;20041;-67
2022/03/04 05:31:29;;;;;;;44.53;26.98;;;;;;;1.11;47.59;99300.56;5045590;28;20060;-68
2022/03/04 05:34:01;;;;;;;47.42;26.58;;;;;;;1.13;47.83;99296.19;5045511;28;20045;-67
2022/03/04 05:36:33;;;;;;;46.25;25.88;;;;;;;1.12;48.09;99304.91;5045729;28;20041;-67
2022/03/04 05:39:07;;;;;;;38.50;24.05;;;;;;;1.10;48.67;99303.22;5045716;28;20041;-67
2022/03/04 05:41:40;;;;;;;40.40;24.33;;;;;;;1.11;47.91;99310.16;5045759;28;20084;-67
2022/03/04 05:44:14;;;;;;;39.95;23.98;;;;;;;1.11;47.57;99305.78;5045453;28;20248;-68
2022/03/04 05:46:46;;;;;;;40.83;24.27;;;;;;;1.13;48.10;99313.59;5045325;28;20092;-68
2022/03/04 05:49:18;;;;;;;39.80;25.80;;;;;;;1.15;47.95;99322.25;5045338;28;20037;-67
2022/03/04 05:51:51;;;;;;;35.97;22.63;;;;;;;1.12;48.41;99319.69;5045282;28;20041;-67
2022/03/04 05:54:25;;;;;;;42.15;24.63;;;;;;;0.16;48.24;99172.66;5045069;28;20111;-68
2022/03/04 05:56:57;;;;;;;39.78;24.38;;;;;;;1.06;48.32;99320.66;5045347;28;20247;-67
2022/03/04 05:59:29;;;;;;;36.97;22.60;;;;;;;1.08;48.53;99329.34;5045601;28;20083;-67
2022/03/04 06:02:01;;;;;;;38.08;23.55;;;;;;;1.06;48.04;99328.50;5045543;28;20042;-68
2022/03/04 06:04:33;;;;;;;38.72;24.65;;;;;;;1.08;48.42;99329.34;5045508;28;20045;-68
2022/03/04 06:07:06;;;;;;;38.28;23.63;;;;;;;1.10;48.27;99331.91;5045560;28;20105;-68
2022/03/04 06:09:39;;;;;;;33.75;20.00;;;;;;;1.12;48.23;99330.16;5045129;28;20038;-67
2022/03/04 06:12:11;;;;;;;35.08;22.35;;;;;;;0.90;48.34;99304.41;5045196;28;20037;-67
2022/03/04 06:14:44;;;;;;;35.40;22.02;;;;;;;1.15;48.06;99338.78;5045342;28;20149;-68
2022/03/04 06:17:16;;;;;;;55.47;21.95;;;;;;;1.09;48.49;99351.06;5045449;28;20123;-68
2022/03/04 06:19:49;;;;;;;40.83;20.80;;;;;;;1.10;48.75;99347.56;5047526;28;20037;-67
2022/03/04 06:22:21;;;;;;;32.65;18.75;;;;;;;1.13;48.34;99355.34;5049019;28;20041;-67
2022/03/04 06:24:54;;;;;;;33.65;19.20;;;;;;;1.10;48.56;99361.50;5048933;28;20095;-68
2022/03/04 06:27:26;;;;;;;38.60;20.23;;;;;;;1.12;47.63;99357.09;5048915;28;20045;-67
2022/03/04 06:29:59;;;;;;;29.35;18.45;;;;;;;1.15;47.41;99356.19;5048776;28;20065;-67
2022/03/04 06:32:31;;;;;;;32.25;19.83;;;;;;;1.17;47.87;99355.28;5048635;28;20041;-67
2022/03/04 06:35:04;;;;;;;34.20;19.52;;;;;;;1.19;48.00;99353.50;5048577;28;20228;-67
2022/03/04 06:37:36;;;;;;;29.83;18.92;;;;;;;1.19;47.41;99370.91;5048670;28;20083;-68
2022/03/04 06:40:11;;;;;;;34.38;19.75;;;;;;;1.18;48.52;99366.59;5048788;28;20064;-68
2022/03/04 06:42:46;;;;;;;31.83;17.00;;;;;;;1.20;47.75;99376.09;5048679;28;20049;-68
2022/03/04 06:45:19;;;;;;;27.35;16.88;;;;;;;1.24;47.74;99380.41;5048526;28;20041;-68
2022/03/04 06:47:51;;;;;;;26.00;16.23;;;;;;;1.22;47.76;99384.78;5048272;28;20049;-68
2022/03/04 06:50:24;;;;;;;32.38;18.88;;;;;;;1.07;47.16;99363.28;5048482;28;20045;-68
2022/03/04 06:52:56;;;;;;;33.72;20.40;;;;;;;1.32;47.51;99405.50;5048346;28;20108;-68
2022/03/04 06:55:30;;;;;;;31.52;19.65;;;;;;;1.34;47.94;99401.97;5048526;28;20078;-67
2022/03/04 06:58:03;;;;;;;34.25;20.42;;;;;;;1.41;47.38;99407.97;5048522;28;20092;-68
2022/03/04 07:00:35;;;;;;;30.10;17.88;;;;;;;1.37;47.09;99401.06;5048516;28;20107;-68
2022/03/04 07:03:08;;;;;;;36.22;20.42;;;;;;;1.37;47.50;99401.94;5048133;28;20259;-68
2022/03/04 07:05:43;;;;;;;34.90;19.98;;;;;;;1.37;47.53;99394.09;5048113;28;20091;-68
2022/03/04 07:08:15;;;;;;;38.17;20.15;;;;;;;-1.48;47.50;98918.31;5048461;28;20084;-69
2022/03/04 07:10:49;;;;;;;27.73;18.00;;;;;;;1.33;47.27;99397.66;5048343;28;20041;-69
2022/03/04 07:13:21;;;;;;;30.48;18.80;;;;;;;1.33;46.94;99402.88;5046780;28;20042;-68
2022/03/04 07:15:53;;;;;;;32.55;20.95;;;;;;;1.29;47.48;99398.59;5047849;28;20092;-68
2022/03/04 07:18:29;;;;;;;32.97;19.48;;;;;;;1.30;46.88;99405.53;5047876;28;20041;-67
2022/03/04 07:21:01;;;;;;;30.92;19.90;;;;;;;1.07;48.01;99374.59;5047654;28;20049;-67
2022/03/04 07:23:34;;;;;;;31.35;18.98;;;;;;;1.29;47.58;99408.19;5046694;28;20037;-67
2022/03/04 07:26:08;;;;;;;29.13;18.60;;;;;;;1.29;48.32;99413.41;5047653;28;20051;-67
2022/03/04 07:28:39;;;;;;;29.08;17.30;;;;;;;1.35;47.93;99408.94;5047360;28;20064;-67
2022/03/04 07:31:09;;;;;;;31.67;19.75;;;;;;;1.36;48.16;99408.03;5046779;28;20071;-69
2022/03/04 07:33:40;;;;;;;31.50;20.88;;;;;;;1.36;48.03;99413.25;5047019;28;20061;-68
2022/03/04 07:36:10;;;;;;;27.90;16.77;;;;;;;1.35;48.23;99410.69;5047076;28;20041;-69
2022/03/04 07:38:40;;;;;;;31.25;19.95;;;;;;;1.35;47.70;99408.94;5047517;28;20049;-69
2022/03/04 07:41:12;;;;;;;36.35;19.65;;;;;;;1.33;47.84;99413.31;5047358;28;20071;-69
2022/03/04 07:43:41;;;;;;;34.53;21.02;;;;;;;1.33;47.59;99409.84;5047230;28;20308;-69
2022/03/04 07:46:11;;;;;;;31.63;20.42;;;;;;;1.39;47.74;99413.22;5046995;28;20049;-68
2022/03/04 07:48:41;;;;;;;33.80;20.23;;;;;;;1.39;48.46;99402.78;5047081;28;20049;-68
2022/03/04 07:51:12;;;;;;;36.25;21.70;;;;;;;1.38;47.87;99405.41;5046912;28;20109;-68
2022/03/04 07:53:42;;;;;;;31.95;20.23;;;;;;;1.32;48.34;99408.97;5046083;28;20185;-68
2022/03/04 07:56:13;;;;;;;28.45;18.10;;;;;;;1.39;48.33;99397.53;5046780;28;20204;-68
2022/03/04 07:58:42;;;;;;;36.60;21.73;;;;;;;1.36;47.79;99407.19;5046898;28;20037;-68
2022/03/04 08:01:12;;;;;;;30.50;18.95;;;;;;;1.39;48.08;99402.78;5046522;28;20048;-68
2022/03/04 08:03:43;;;;;;;35.03;21.42;;;;;;;1.40;47.61;99404.50;5045435;28;20336;-68
2022/03/04 08:06:13;;;;;;;31.90;19.45;;;;;;;1.41;47.99;99406.22;5046175;28;20050;-69
2022/03/04 08:08:43;;;;;;;33.28;19.98;;;;;;;-1.53;48.49;98904.50;5045806;28;20048;-68
2022/03/04 08:11:15;;;;;;;27.77;19.35;;;;;;;1.45;48.19;99413.09;5045736;28;20297;-68
2022/03/04 08:13:44;;;;;;;30.70;17.73;;;;;;;1.50;47.66;99418.25;5045900;28;20099;-68
2022/03/04 08:16:14;;;;;;;27.45;17.35;;;;;;;1.53;47.62;99421.66;5046342;28;20049;-68
2022/03/04 08:18:44;;;;;;;27.83;18.73;;;;;;;1.56;47.44;99408.56;5046447;28;20042;-68
2022/03/04 08:21:14;;;;;;;27.77;17.38;;;;;;;1.42;48.13;99391.41;5046325;28;20096;-68
2022/03/04 08:23:44;;;;;;;29.35;18.58;;;;;;;1.81;47.64;99402.91;5046024;28;20041;-69
2022/03/04 08:26:16;;;;;;;27.60;16.73;;;;;;;2.09;47.14;99401.47;5046361;28;20045;-68
2022/03/04 08:28:44;;;;;;;24.27;16.90;;;;;;;2.35;46.95;99410.53;5046067;28;20072;-69
2022/03/04 08:31:15;;;;;;;26.10;15.45;;;;;;;2.45;46.65;99373.69;5046073;28;20100;-69
2022/03/04 08:33:47;;;;;;;26.98;16.92;;;;;;;2.71;46.21;99450.75;5045910;28;20101;-68
2022/03/04 08:36:15;;;;;;;31.45;19.27;;;;;;;2.96;45.37;99398.69;5045892;28;20057;-68
2022/03/04 08:38:46;;;;;;;28.48;17.50;;;;;;;3.04;45.04;99392.38;5046217;28;20041;-69
2022/03/04 08:41:16;;;;;;;25.20;17.25;;;;;;;2.64;45.44;99276.47;5045753;28;20050;-69
2022/03/04 08:43:46;;;;;;;28.55;18.73;;;;;;;3.32;44.71;99369.00;5046529;28;20029;-68
2022/03/04 08:46:15;;;;;;;28.33;18.92;;;;;;;3.65;44.25;99387.34;5045669;28;20111;-69
2022/03/04 08:48:45;;;;;;;28.42;18.10;;;;;;;3.92;44.07;99386.59;5046282;28;20052;-68
2022/03/04 08:51:15;;;;;;;27.92;17.33;;;;;;;4.13;43.55;99382.50;5046122;28;20244;-69
2022/03/04 08:53:46;;;;;;;30.08;18.52;;;;;;;4.29;43.22;99382.97;5045491;28;20061;-69
2022/03/04 08:56:17;;;;;;;28.85;17.35;;;;;;;4.54;43.29;99388.34;5045597;28;20064;-68
2022/03/04 08:58:46;;;;;;;33.25;19.85;;;;;;;4.72;42.44;99377.28;5045313;28;20068;-69
2022/03/04 09:01:16;;;;;;;27.60;16.85;;;;;;;4.66;42.22;99361.72;5046137;28;20249;-69
2022/03/04 09:03:46;;;;;;;28.58;17.00;;;;;;;4.86;42.02;99353.22;5045674;28;20057;-69
2022/03/04 09:06:16;;;;;;;26.15;18.05;;;;;;;4.92;42.02;99360.94;5046274;28;20277;-69
2022/03/04 09:08:47;;;;;;;29.55;17.63;;;;;;;5.16;41.84;99391.66;5045330;28;20041;-69
2022/03/04 09:11:18;;;;;;;30.27;17.20;;;;;;;5.23;41.73;99390.53;5045701;28;20330;-68
2022/03/04 09:13:47;;;;;;;28.40;18.25;;;;;;;5.09;41.59;99404.13;5044252;28;20301;-68
2022/03/04 09:16:17;;;;;;;26.25;16.38;;;;;;;4.97;42.28;99406.28;5045299;28;20080;-68
2022/03/04 09:18:47;;;;;;;27.70;17.02;;;;;;;3.77;42.11;99227.13;5044605;28;20292;-68
2022/03/04 09:21:17;;;;;;;30.08;19.05;;;;;;;4.72;42.38;99417.53;5045265;28;20108;-68
2022/03/04 09:23:47;;;;;;;26.27;17.40;;;;;;;4.73;42.32;99418.38;5045090;28;20100;-68
2022/03/04 09:26:19;;;;;;;30.38;17.33;;;;;;;4.76;42.33;99418.28;5045156;28;20045;-68
2022/03/04 09:28:48;;;;;;;33.08;18.67;;;;;;;4.82;42.21;99420.72;5045336;28;20037;-68
2022/03/04 09:31:17;;;;;;;27.50;17.15;;;;;;;5.04;42.13;99416.56;5044942;28;20060;-68
2022/03/04 09:33:48;;;;;;;29.20;17.35;;;;;;;5.06;41.98;99419.13;5045303;28;20316;-68
2022/03/04 09:36:18;;;;;;;27.30;16.50;;;;;;;5.40;41.39;99411.00;5045453;28;20343;-68
2022/03/04 09:38:48;;;;;;;27.27;17.52;;;;;;;5.65;40.72;99403.16;5044932;28;20297;-68
2022/03/04 09:41:20;;;;;;;28.15;17.50;;;;;;;5.68;41.00;99400.41;5044848;28;20040;-68
2022/03/04 09:43:49;;;;;;;28.92;17.63;;;;;;;5.83;40.55;99399.03;5044762;28;20049;-68
2022/03/04 09:46:20;;;;;;;25.67;17.90;;;;;;;5.98;40.37;99387.97;5045118;28;20033;-68
2022/03/04 09:48:50;;;;;;;27.17;18.13;;;;;;;6.22;40.14;99386.22;5044434;28;20120;-68
2022/03/04 09:51:19;;;;;;;27.42;17.73;;;;;;;6.21;39.79;99352.91;5044760;28;20040;-68
2022/03/04 09:53:51;;;;;;;26.98;16.80;;;;;;;6.47;40.03;99380.88;5046624;28;20352;-69
2022/03/04 09:56:25;;;;;;;29.08;18.17;;;;;;;6.49;39.63;99387.81;5048645;28;20045;-68
2022/03/04 09:58:58;;;;;;;28.20;19.93;;;;;;;6.26;39.89;99387.81;5048751;28;20194;-69
2022/03/04 10:01:30;;;;;;;24.98;17.17;;;;;;;6.17;40.14;99388.16;5048927;28;20093;-70
2022/03/04 10:04:06;;;;;;;30.00;18.92;;;;;;;6.21;40.29;99384.50;5048242;28;20045;-70
2022/03/04 10:06:39;;;;;;;27.95;16.88;;;;;;;6.37;40.19;99381.22;5048678;28;20061;-69
2022/03/04 10:09:11;;;;;;;27.65;16.73;;;;;;;6.52;39.87;99385.06;5048446;28;20087;-70
2022/03/04 10:11:44;;;;;;;24.13;17.23;;;;;;;6.82;39.16;99374.28;5048355;28;20095;-70
2022/03/04 10:14:17;;;;;;;27.30;17.90;;;;;;;6.87;39.16;99380.22;5048410;28;20099;-70
2022/03/04 10:16:49;;;;;;;27.13;17.65;;;;;;;6.83;39.46;99390.03;5048239;28;20049;-70
2022/03/04 10:19:23;;;;;;;26.85;17.77;;;;;;;6.70;39.45;99386.97;5048319;28;20106;-70
2022/03/04 10:21:57;;;;;;;27.17;17.38;;;;;;;6.63;39.56;99387.28;5048528;28;20038;-70
2022/03/04 10:24:31;;;;;;;28.85;17.13;;;;;;;6.51;39.82;99380.72;5048521;28;20092;-70
2022/03/04 10:27:07;;;;;;;26.60;16.80;;;;;;;6.39;39.72;99373.28;5047978;28;20052;-70
2022/03/04 10:29:42;;;;;;;24.75;17.17;;;;;;;6.31;40.15;99388.50;5048255;28;20064;-69
2022/03/04 10:32:18;;;;;;;25.23;17.00;;;;;;;6.19;40.23;99381.06;5047806;28;20258;-69
2022/03/04 10:34:53;;;;;;;24.73;16.70;;;;;;;5.98;40.63;99383.56;5048094;28;20048;-69
2022/03/04 10:37:39;;;;;;;;;;;;;;;5.83;40.46;99380.63;5047850;28;20092;-69
2022/03/04 10:40:14;;;;;;;26.80;18.70;;;;;;;5.73;41.04;99382.72;5048201;28;19929;-70
2022/03/04 10:42:49;;;;;;;;;;;;;;;5.44;41.08;99381.94;5031828;28;20095;-69
2022/03/04 10:45:22;;;;;;;27.17;17.57;;;;;;;5.35;41.57;99345.47;5047937;28;19917;-69
2022/03/04 10:47:58;;;;;;;26.45;17.45;;;;;;;5.58;41.27;99375.34;5047584;28;20431;-69
2022/03/04 10:50:34;;;;;;;21.48;14.60;;;;;;;5.52;41.31;99367.69;5047659;28;20095;-69
2022/03/04 10:53:08;;;;;;;23.15;15.90;;;;;;;5.36;41.39;99373.47;5047363;28;20065;-69
2022/03/04 10:55:42;;;;;;;25.83;16.15;;;;;;;5.35;41.45;99384.88;5046749;28;20102;-69
2022/03/04 10:58:18;;;;;;;22.08;17.02;;;;;;;5.34;41.43;99387.56;5047476;28;20084;-69
2022/03/04 11:00:52;;;;;;;27.73;16.17;;;;;;;5.26;41.52;99374.69;5047620;28;20041;-69
2022/03/04 11:03:26;;;;;;;26.50;15.67;;;;;;;5.23;41.57;99373.91;5048118;28;20053;-69
2022/03/04 11:06:03;;;;;;;24.48;15.50;;;;;;;5.18;41.38;99371.44;5046755;28;20095;-69
2022/03/04 11:08:35;;;;;;;25.30;15.80;;;;;;;5.11;41.57;99369.94;5047259;28;20042;-69
2022/03/04 11:11:09;;;;;;;24.45;14.48;;;;;;;5.20;41.50;99371.41;5047512;28;20037;-69
2022/03/04 11:13:42;;;;;;;24.83;15.75;;;;;;;4.99;41.38;99331.78;5046536;28;20064;-69
2022/03/04 11:16:11;;;;;;;20.73;13.90;;;;;;;5.20;41.39;99369.63;5047493;28;20117;-70
2022/03/04 11:18:42;;;;;;;24.88;16.30;;;;;;;2.19;41.29;98858.31;5047265;28;20041;-69
2022/03/04 11:21:13;;;;;;;23.67;16.90;;;;;;;5.26;41.40;99371.19;5047088;28;20352;-69
2022/03/04 11:23:47;;;;;;;29.58;17.33;;;;;;;5.26;41.60;99369.44;5045762;28;20065;-69
2022/03/04 11:26:22;;;;;;;24.27;15.60;;;;;;;5.29;41.43;99369.31;5046932;28;20232;-70
2022/03/04 11:28:56;;;;;;;26.95;16.20;;;;;;;5.19;41.22;99360.03;5046896;28;20088;-69
2022/03/04 11:31:30;;;;;;;24.17;14.30;;;;;;;5.11;41.31;99378.66;5046969;28;20084;-69
2022/03/04 11:34:04;;;;;;;24.42;15.20;;;;;;;5.09;41.60;99375.22;5046865;28;20088;-69
2022/03/04 11:36:39;;;;;;;21.05;14.07;;;;;;;5.12;41.56;99372.50;5045748;28;20053;-69
2022/03/04 11:39:13;;;;;;;20.65;14.27;;;;;;;5.15;41.46;99368.91;5046817;28;20064;-69
2022/03/04 11:42:10;;;;;;;21.48;15.27;;;;;;;5.18;41.54;99368.81;5046278;28;20245;-69
2022/03/04 11:44:58;;;;;;;20.30;13.38;;;;;;;5.24;41.67;99362.50;5046360;28;20037;-69
2022/03/04 11:47:37;;;;;;;19.05;13.02;;;;;;;5.25;41.25;99356.34;5045997;28;20049;-69